Time;durP1;ratioP1;P1;durP2;ratioP2;P2;SDS_P1;SDS_P2;PMS_P1;PMS_P2;Temp;Humidity;BMP_temperature;BMP_pressure;BME280_temperature;BME280_humidity;BME280_pressure;Samples;Min_cycle;Max_cycle;Signal;HPM_P1;HPM_P2
2022/12/08 00:02:05;;;;;;;20.75;9.78;;;;;;;-0.56;72.94;101275.98;1757923;80;21511;-86
2022/12/08 00:18:14;;;;;;;17.95;11.63;;;;;;;-0.10;73.43;101277.08;1799592;79;22456;-90
2022/12/08 00:20:41;;;;;;;16.57;11.08;;;;;;;-0.17;73.44;101272.39;1760173;81;21475;-87
2022/12/08 00:23:07;;;;;;;24.27;12.35;;;;;;;-0.23;73.62;101275.84;1726529;83;21140;-89
2022/12/08 00:25:35;;;;;;;17.73;12.25;;;;;;;-0.22;74.02;101278.01;1712887;83;20944;-88
2022/12/08 00:28:02;;;;;;;21.05;13.00;;;;;;;-0.17;73.97;101275.41;1713009;83;20928;-90
2022/12/08 00:30:29;;;;;;;18.30;11.88;;;;;;;-0.23;74.02;101291.73;1712954;83;20924;-86
2022/12/08 00:32:55;;;;;;;17.40;9.98;;;;;;;-0.21;74.35;101292.59;1723899;83;21577;-88
2022/12/08 00:35:23;;;;;;;24.77;12.88;;;;;;;-0.16;74.32;101301.15;1723900;83;21242;-89
2022/12/08 00:37:49;;;;;;;18.35;11.25;;;;;;;-0.13;74.02;101298.58;1724291;83;20948;-88
2022/12/08 00:40:17;;;;;;;23.65;12.73;;;;;;;-0.12;74.22;101290.41;1725385;83;20971;-86
2022/12/08 00:42:44;;;;;;;18.87;11.48;;;;;;;-0.10;74.15;101286.09;1724335;83;20943;-89
2022/12/08 00:45:11;;;;;;;19.67;11.90;;;;;;;-0.05;74.29;101285.63;1724084;83;20947;-88
2022/12/08 00:47:37;;;;;;;23.90;12.15;;;;;;;-0.01;74.02;101283.03;1724002;83;21804;-88
2022/12/08 00:50:05;;;;;;;19.55;12.10;;;;;;;0.02;73.81;101287.74;1724011;82;20841;-90
2022/12/08 00:52:33;;;;;;;21.93;11.28;;;;;;;-0.02;73.81;101286.48;1725236;83;20948;-88
2022/12/08 00:55:00;;;;;;;25.27;13.08;;;;;;;-0.01;73.84;101292.48;1724970;83;20912;-87
2022/12/08 00:57:27;;;;;;;23.47;14.00;;;;;;;-0.02;73.80;101291.64;1724399;83;20872;-88
2022/12/08 00:59:54;;;;;;;19.95;12.40;;;;;;;-0.01;74.05;101292.05;1724021;83;21157;-89
2022/12/08 01:02:20;;;;;;;18.57;12.53;;;;;;;0.04;73.82;101295.04;1723942;83;20888;-88
2022/12/08 01:04:47;;;;;;;20.68;13.45;;;;;;;0.05;73.76;101291.61;1724007;82;21472;-88
2022/12/08 01:07:13;;;;;;;16.80;10.75;;;;;;;0.05;73.68;101292.47;1723962;82;21393;-88
2022/12/08 08:46:25;;;;;;;18.73;11.65;;;;;;;1.90;86.73;101391.13;1718232;82;20923;-84
2022/12/08 08:48:52;;;;;;;19.57;12.43;;;;;;;1.86;86.46;101389.00;1719577;82;21826;-85
2022/12/08 08:51:18;;;;;;;19.30;13.15;;;;;;;1.88;86.20;101388.15;1719561;82;20914;-83
2022/12/08 08:53:46;;;;;;;19.85;12.75;;;;;;;1.91;86.19;101390.24;1719317;82;20908;-84
2022/12/08 08:56:17;;;;;;;16.95;11.53;;;;;;;1.95;86.10;101392.36;1718901;82;21345;-85
2022/12/08 08:58:44;;;;;;;19.02;12.13;;;;;;;1.95;85.76;101390.63;1722524;82;20902;-85
2022/12/08 09:01:17;;;;;;;20.80;12.90;;;;;;;1.95;86.05;101389.34;1722426;82;21152;-85
2022/12/08 09:03:44;;;;;;;18.12;12.43;;;;;;;1.97;86.19;101389.33;1723156;82;21041;-84
2022/12/08 09:06:11;;;;;;;21.60;13.55;;;;;;;2.06;86.24;101389.20;1669507;83;21075;-86
2022/12/08 09:08:38;;;;;;;24.32;13.83;;;;;;;2.07;85.76;101396.11;1660596;84;20931;-84
2022/12/08 09:11:05;;;;;;;18.95;12.88;;;;;;;2.02;85.47;101394.00;1653663;86;20976;-84
2022/12/08 09:13:32;;;;;;;18.73;11.28;;;;;;;1.96;85.25;101386.34;1665213;84;21201;-85
2022/12/08 09:16:01;;;;;;;20.45;13.25;;;;;;;1.95;85.36;101391.92;1661702;85;21023;-85
2022/12/08 09:18:28;;;;;;;18.85;12.65;;;;;;;1.93;85.16;101384.62;1688154;84;21002;-85
2022/12/08 09:20:55;;;;;;;20.15;13.08;;;;;;;1.92;85.39;101380.78;1691046;84;21425;-84
2022/12/08 09:23:22;;;;;;;21.33;13.40;;;;;;;1.96;85.63;101372.95;1691529;84;20927;-87
2022/12/08 09:25:48;;;;;;;18.62;12.63;;;;;;;1.98;85.61;101378.97;1688394;84;21141;-86
2022/12/08 09:28:15;;;;;;;20.35;12.95;;;;;;;2.01;85.64;101364.70;1687683;84;21401;-87
2022/12/08 09:30:42;;;;;;;20.15;13.30;;;;;;;2.07;85.74;101366.36;1687409;84;21520;-88
2022/12/08 09:33:09;;;;;;;18.27;13.70;;;;;;;2.15;85.75;101371.42;1687809;85;21495;-87
2022/12/08 09:35:35;;;;;;;18.02;13.10;;;;;;;2.19;85.54;101375.24;1686880;84;20896;-88
2022/12/08 09:38:02;;;;;;;18.27;11.88;;;;;;;2.21;85.43;101367.47;1688906;83;21156;-88
2022/12/08 09:40:29;;;;;;;17.00;11.38;;;;;;;2.28;85.22;101369.09;1686769;84;21022;-87
2022/12/08 09:43:28;;;;;;;16.85;10.43;;;;;;;2.32;84.69;101369.47;1646397;85;21517;-88
2022/12/08 09:45:54;;;;;;;23.62;10.65;;;;;;;2.28;84.62;101369.09;1693440;83;21015;-88
2022/12/08 09:48:25;;;;;;;17.12;10.48;;;;;;;2.31;84.93;101374.21;1723175;82;20894;-87
2022/12/08 09:50:56;;;;;;;33.90;11.88;;;;;;;2.37;84.93;101368.11;1713934;83;21229;-87
2022/12/08 09:53:40;;;;;;;16.55;10.32;;;;;;;2.41;84.35;101373.67;1717288;82;21114;-87
2022/12/08 09:56:22;;;;;;;69.32;14.40;;;;;;;2.39;84.32;101378.01;1717046;82;20947;-87
2022/12/08 09:59:04;;;;;;;41.30;12.73;;;;;;;2.42;84.32;101374.07;1716733;82;20904;-88
2022/12/08 10:01:40;;;;;;;14.58;10.98;;;;;;;2.44;84.07;101375.75;1720506;82;21061;-87
2022/12/08 10:04:23;;;;;;;31.65;10.25;;;;;;;2.45;83.76;101378.78;1721419;82;22008;-86
2022/12/08 10:07:21;;;;;;;21.23;8.68;;;;;;;2.48;83.96;101380.02;1720476;82;20963;-85
2022/12/08 10:10:05;;;;;;;18.05;8.70;;;;;;;2.56;83.86;101379.08;1709037;82;20927;-87
2022/12/08 17:40:19;;;;;;;12.00;9.25;;;;;;;3.00;91.74;101290.30;1752685;80;21061;-88
2022/12/08 17:42:50;;;;;;;15.35;10.32;;;;;;;2.96;91.45;101279.98;1776173;80;20873;-89
2022/12/08 17:45:18;;;;;;;13.30;9.00;;;;;;;2.90;91.33;101273.20;1772419;80;20861;-88
2022/12/08 17:47:46;;;;;;;13.03;9.30;;;;;;;2.84;91.30;101274.14;1756742;80;21224;-89
2022/12/08 17:50:15;;;;;;;8.68;7.15;;;;;;;2.83;91.27;101273.74;1772918;80;21018;-87
2022/12/08 17:52:40;;;;;;;13.93;8.60;;;;;;;2.84;91.25;101272.00;1688299;83;20903;-89
2022/12/08 17:55:09;;;;;;;12.07;7.83;;;;;;;2.85;91.39;101273.28;1760980;80;20889;-89
2022/12/08 17:57:36;;;;;;;13.95;8.48;;;;;;;2.87;91.46;101265.05;1731451;82;21549;-89
2022/12/08 18:00:04;;;;;;;20.23;11.78;;;;;;;2.85;91.33;101266.80;1748230;80;21223;-89
2022/12/08 18:02:34;;;;;;;17.23;10.90;;;;;;;2.82;91.45;101263.40;1745361;80;21503;-89
2022/12/08 18:05:03;;;;;;;10.50;7.95;;;;;;;2.82;91.69;101264.24;1744769;80;21600;-87
2022/12/08 18:07:30;;;;;;;11.53;7.90;;;;;;;2.81;91.53;101253.48;1713698;82;21524;-87
2022/12/08 18:09:57;;;;;;;12.58;8.73;;;;;;;2.87;91.49;101261.60;1745515;80;20960;-88
2022/12/08 18:12:25;;;;;;;10.25;8.10;;;;;;;2.90;91.43;101268.02;1741516;80;21143;-90
2022/12/08 18:14:54;;;;;;;14.58;8.58;;;;;;;2.93;91.78;101274.88;1765345;80;20951;-91
2022/12/08 18:17:24;;;;;;;16.93;9.53;;;;;;;2.96;91.81;101276.98;1719512;82;20933;-89
2022/12/08 18:19:51;;;;;;;14.75;9.65;;;;;;;3.00;91.82;101269.57;1761518;80;20892;-89
2022/12/08 18:22:18;;;;;;;13.50;9.48;;;;;;;3.04;91.55;101271.64;1726863;82;20972;-88
2022/12/08 18:24:46;;;;;;;14.47;9.98;;;;;;;3.04;91.25;101266.02;1773753;80;21445;-89
2022/12/08 18:27:13;;;;;;;14.20;10.48;;;;;;;3.05;91.04;101272.08;1759047;80;20975;-88
2022/12/08 18:29:40;;;;;;;14.10;9.58;;;;;;;3.04;91.08;101275.08;1744777;80;21157;-87
2022/12/08 18:32:07;;;;;;;15.53;11.50;;;;;;;3.07;91.19;101284.56;1733704;82;21022;-88
2022/12/08 18:34:39;;;;;;;17.23;12.78;;;;;;;3.11;91.26;101277.12;1762800;80;20983;-89
2022/12/08 18:37:07;;;;;;;20.92;13.72;;;;;;;3.11;91.34;101281.89;1743571;80;21056;-88
2022/12/08 18:39:36;;;;;;;20.37;12.85;;;;;;;3.16;91.30;101272.73;1775852;80;20885;-89
2022/12/08 18:42:27;;;;;;;18.85;13.48;;;;;;;3.20;91.07;101274.38;1762929;80;20998;-89
2022/12/08 18:44:54;;;;;;;19.73;11.93;;;;;;;3.20;90.70;101265.73;1764401;80;21424;-91
2022/12/08 18:47:20;;;;;;;19.70;12.82;;;;;;;3.20;90.45;101271.79;1760755;80;20834;-90
2022/12/08 18:49:47;;;;;;;26.75;15.83;;;;;;;3.19;90.32;101269.22;1760128;80;21106;-91
2022/12/08 18:52:14;;;;;;;22.98;13.95;;;;;;;3.15;90.46;101263.23;1762695;81;21001;-91
2022/12/08 18:54:42;;;;;;;17.27;10.32;;;;;;;3.14;90.63;101257.64;1755939;80;20836;-89
2022/12/08 18:57:09;;;;;;;21.35;14.18;;;;;;;3.13;90.52;101251.19;1747752;81;20876;-91
2022/12/08 18:59:36;;;;;;;22.48;15.80;;;;;;;3.10;90.78;101263.77;1763313;80;21149;-92
2022/12/08 19:02:04;;;;;;;18.42;13.68;;;;;;;3.11;90.84;101257.69;1769917;80;21736;-90
2022/12/08 19:04:36;;;;;;;21.97;13.25;;;;;;;3.10;90.70;101255.99;1746567;80;21036;-91
2022/12/08 19:07:02;;;;;;;21.02;14.35;;;;;;;3.10;90.62;101254.69;1764473;80;21000;-90
2022/12/08 19:09:29;;;;;;;18.02;12.80;;;;;;;3.09;90.49;101251.26;1741045;80;21033;-90
2022/12/08 19:11:58;;;;;;;19.62;12.58;;;;;;;3.05;90.58;101252.64;1752862;80;20912;-91
2022/12/08 19:14:29;;;;;;;16.17;11.18;;;;;;;3.04;90.76;101262.58;1773721;80;21281;-92
2022/12/08 19:17:01;;;;;;;18.52;11.83;;;;;;;3.04;90.89;101264.72;1767735;80;21290;-92
2022/12/08 19:19:26;;;;;;;24.10;13.32;;;;;;;3.05;90.70;101269.48;1765268;80;20893;-93
